sensor_id;sensor_type;location;lat;lon;timestamp;temperature;humidity
59309;DHT22;48433;53.016;-2.260;2023-09-07T00:02:11;22.80;99.90
59309;DHT22;48433;53.016;-2.260;2023-09-07T00:04:39;22.80;99.90
59309;DHT22;48433;53.016;-2.260;2023-09-07T00:07:06;22.80;99.90
59309;DHT22;48433;53.016;-2.260;2023-09-07T00:09:34;22.80;99.90
59309;DHT22;48433;53.016;-2.260;2023-09-07T00:12:02;22.90;99.90
59309;DHT22;48433;53.016;-2.260;2023-09-07T00:14:29;22.80;99.90
59309;DHT22;48433;53.016;-2.260;2023-09-07T00:16:57;22.80;99.90
59309;DHT22;48433;53.016;-2.260;2023-09-07T00:19:25;22.90;99.90
59309;DHT22;48433;53.016;-2.260;2023-09-07T00:21:53;22.90;99.90
59309;DHT22;48433;53.016;-2.260;2023-09-07T00:26:50;22.80;99.90
59309;DHT22;48433;53.016;-2.260;2023-09-07T00:29:19;22.90;99.90
59309;DHT22;48433;53.016;-2.260;2023-09-07T00:31:46;22.80;99.90
59309;DHT22;48433;53.016;-2.260;2023-09-07T00:39:10;22.70;99.90
59309;DHT22;48433;53.016;-2.260;2023-09-07T00:41:38;22.60;99.90
59309;DHT22;48433;53.016;-2.260;2023-09-07T00:44:05;22.70;99.90
59309;DHT22;48433;53.016;-2.260;2023-09-07T00:46:33;22.60;99.90
59309;DHT22;48433;53.016;-2.260;2023-09-07T00:51:29;22.60;99.90
59309;DHT22;48433;53.016;-2.260;2023-09-07T00:53:58;22.50;99.90
59309;DHT22;48433;53.016;-2.260;2023-09-07T00:58:54;22.50;99.90
59309;DHT22;48433;53.016;-2.260;2023-09-07T01:03:52;22.50;99.90
59309;DHT22;48433;53.016;-2.260;2023-09-07T01:06:24;22.40;99.90
59309;DHT22;48433;53.016;-2.260;2023-09-07T01:08:55;22.40;99.90
59309;DHT22;48433;53.016;-2.260;2023-09-07T01:11:26;22.40;99.90
59309;DHT22;48433;53.016;-2.260;2023-09-07T01:13:54;22.40;99.90
59309;DHT22;48433;53.016;-2.260;2023-09-07T01:16:23;22.40;99.90
59309;DHT22;48433;53.016;-2.260;2023-09-07T01:21:20;22.50;99.90
59309;DHT22;48433;53.016;-2.260;2023-09-07T01:23:50;22.50;99.90
59309;DHT22;48433;53.016;-2.260;2023-09-07T01:26:18;22.50;99.90
59309;DHT22;48433;53.016;-2.260;2023-09-07T01:28:45;22.60;99.90
59309;DHT22;48433;53.016;-2.260;2023-09-07T01:31:13;22.70;99.90
59309;DHT22;48433;53.016;-2.260;2023-09-07T01:33:41;22.70;99.90
59309;DHT22;48433;53.016;-2.260;2023-09-07T01:36:08;22.70;99.90
59309;DHT22;48433;53.016;-2.260;2023-09-07T01:38:36;22.70;99.90
59309;DHT22;48433;53.016;-2.260;2023-09-07T01:41:04;22.70;99.90
59309;DHT22;48433;53.016;-2.260;2023-09-07T01:43:31;22.70;99.90
59309;DHT22;48433;53.016;-2.260;2023-09-07T01:45:59;22.70;99.90
59309;DHT22;48433;53.016;-2.260;2023-09-07T01:48:27;22.70;99.90
59309;DHT22;48433;53.016;-2.260;2023-09-07T01:50:55;22.70;99.90
59309;DHT22;48433;53.016;-2.260;2023-09-07T01:53:23;22.70;99.90
59309;DHT22;48433;53.016;-2.260;2023-09-07T01:55:54;22.70;99.90
59309;DHT22;48433;53.016;-2.260;2023-09-07T01:58:23;22.70;99.90
59309;DHT22;48433;53.016;-2.260;2023-09-07T02:00:57;22.70;99.90
59309;DHT22;48433;53.016;-2.260;2023-09-07T02:03:26;22.70;99.90
59309;DHT22;48433;53.016;-2.260;2023-09-07T02:05:54;22.70;99.90
59309;DHT22;48433;53.016;-2.260;2023-09-07T02:08:22;22.60;99.90
59309;DHT22;48433;53.016;-2.260;2023-09-07T02:10:50;22.60;99.90
59309;DHT22;48433;53.016;-2.260;2023-09-07T02:13:18;22.60;99.90
59309;DHT22;48433;53.016;-2.260;2023-09-07T02:15:46;22.60;99.90
59309;DHT22;48433;53.016;-2.260;2023-09-07T02:18:13;22.60;99.90
59309;DHT22;48433;53.016;-2.260;2023-09-07T02:20:41;22.60;99.90
59309;DHT22;48433;53.016;-2.260;2023-09-07T02:28:05;22.60;99.90
59309;DHT22;48433;53.016;-2.260;2023-09-07T02:33:01;22.60;99.90
59309;DHT22;48433;53.016;-2.260;2023-09-07T02:35:29;22.50;99.90
59309;DHT22;48433;53.016;-2.260;2023-09-07T02:40:25;22.60;99.90
59309;DHT22;48433;53.016;-2.260;2023-09-07T02:45:20;22.50;99.90
59309;DHT22;48433;53.016;-2.260;2023-09-07T02:50:18;22.60;99.90
59309;DHT22;48433;53.016;-2.260;2023-09-07T02:52:46;22.60;99.90
59309;DHT22;48433;53.016;-2.260;2023-09-07T02:55:13;22.60;99.90
59309;DHT22;48433;53.016;-2.260;2023-09-07T02:57:41;22.50;99.90
59309;DHT22;48433;53.016;-2.260;2023-09-07T03:00:09;22.60;99.90
59309;DHT22;48433;53.016;-2.260;2023-09-07T03:02:38;22.60;99.90
59309;DHT22;48433;53.016;-2.260;2023-09-07T03:07:35;22.60;99.90
59309;DHT22;48433;53.016;-2.260;2023-09-07T03:10:03;22.60;99.90
59309;DHT22;48433;53.016;-2.260;2023-09-07T03:12:31;22.50;99.90
59309;DHT22;48433;53.016;-2.260;2023-09-07T03:22:27;22.50;99.90
59309;DHT22;48433;53.016;-2.260;2023-09-07T03:24:57;22.50;99.90
59309;DHT22;48433;53.016;-2.260;2023-09-07T03:32:21;22.50;99.90
59309;DHT22;48433;53.016;-2.260;2023-09-07T03:34:49;22.50;99.90
59309;DHT22;48433;53.016;-2.260;2023-09-07T03:37:17;22.40;99.90
59309;DHT22;48433;53.016;-2.260;2023-09-07T03:39:44;22.30;99.90
59309;DHT22;48433;53.016;-2.260;2023-09-07T03:42:12;22.30;99.90
59309;DHT22;48433;53.016;-2.260;2023-09-07T03:44:40;22.30;99.90
59309;DHT22;48433;53.016;-2.260;2023-09-07T03:47:07;22.30;99.90
59309;DHT22;48433;53.016;-2.260;2023-09-07T03:52:05;22.20;99.90
59309;DHT22;48433;53.016;-2.260;2023-09-07T03:54:33;22.20;99.90
59309;DHT22;48433;53.016;-2.260;2023-09-07T03:59:31;22.20;99.90
59309;DHT22;48433;53.016;-2.260;2023-09-07T04:04:27;22.20;99.90
59309;DHT22;48433;53.016;-2.260;2023-09-07T04:19:14;21.90;99.90
59309;DHT22;48433;53.016;-2.260;2023-09-07T04:21:42;21.90;99.90
59309;DHT22;48433;53.016;-2.260;2023-09-07T04:24:09;21.80;99.90
59309;DHT22;48433;53.016;-2.260;2023-09-07T04:29:07;21.70;99.90
59309;DHT22;48433;53.016;-2.260;2023-09-07T04:31:35;21.70;99.90
59309;DHT22;48433;53.016;-2.260;2023-09-07T04:34:03;21.70;99.90
59309;DHT22;48433;53.016;-2.260;2023-09-07T04:38:58;21.70;99.90
59309;DHT22;48433;53.016;-2.260;2023-09-07T04:41:26;21.70;99.90
59309;DHT22;48433;53.016;-2.260;2023-09-07T04:43:54;21.70;99.90
59309;DHT22;48433;53.016;-2.260;2023-09-07T04:46:22;21.70;99.90
59309;DHT22;48433;53.016;-2.260;2023-09-07T04:48:50;21.60;99.90
59309;DHT22;48433;53.016;-2.260;2023-09-07T04:51:18;21.60;99.90
59309;DHT22;48433;53.016;-2.260;2023-09-07T04:53:50;21.60;99.90
59309;DHT22;48433;53.016;-2.260;2023-09-07T04:56:21;21.60;99.90
59309;DHT22;48433;53.016;-2.260;2023-09-07T04:58:49;21.60;99.90
59309;DHT22;48433;53.016;-2.260;2023-09-07T05:01:17;21.60;99.90
59309;DHT22;48433;53.016;-2.260;2023-09-07T05:03:45;21.60;99.90
59309;DHT22;48433;53.016;-2.260;2023-09-07T05:06:13;21.60;99.90
59309;DHT22;48433;53.016;-2.260;2023-09-07T05:08:41;21.50;99.90
59309;DHT22;48433;53.016;-2.260;2023-09-07T05:11:10;21.50;99.90
59309;DHT22;48433;53.016;-2.260;2023-09-07T05:13:38;21.50;99.90
59309;DHT22;48433;53.016;-2.260;2023-09-07T05:16:06;21.60;99.90
59309;DHT22;48433;53.016;-2.260;2023-09-07T05:18:35;21.60;99.90
59309;DHT22;48433;53.016;-2.260;2023-09-07T05:21:16;21.60;99.90
59309;DHT22;48433;53.016;-2.260;2023-09-07T05:23:44;21.60;99.90
59309;DHT22;48433;53.016;-2.260;2023-09-07T05:26:11;21.60;99.90
59309;DHT22;48433;53.016;-2.260;2023-09-07T05:28:42;21.70;99.90
59309;DHT22;48433;53.016;-2.260;2023-09-07T05:31:10;21.70;99.90
59309;DHT22;48433;53.016;-2.260;2023-09-07T05:33:38;21.70;99.90
59309;DHT22;48433;53.016;-2.260;2023-09-07T05:36:06;21.70;99.90
59309;DHT22;48433;53.016;-2.260;2023-09-07T05:38:35;21.80;99.90
59309;DHT22;48433;53.016;-2.260;2023-09-07T05:41:04;21.80;99.90
59309;DHT22;48433;53.016;-2.260;2023-09-07T05:43:32;21.80;99.90
59309;DHT22;48433;53.016;-2.260;2023-09-07T05:45:59;21.80;99.90
59309;DHT22;48433;53.016;-2.260;2023-09-07T05:48:27;21.80;99.90
59309;DHT22;48433;53.016;-2.260;2023-09-07T05:50:56;21.90;99.90
59309;DHT22;48433;53.016;-2.260;2023-09-07T05:53:24;21.80;99.90
59309;DHT22;48433;53.016;-2.260;2023-09-07T05:55:52;21.90;99.90
59309;DHT22;48433;53.016;-2.260;2023-09-07T05:58:20;21.90;99.90
59309;DHT22;48433;53.016;-2.260;2023-09-07T06:00:48;21.90;99.90
59309;DHT22;48433;53.016;-2.260;2023-09-07T06:03:16;21.90;99.90
59309;DHT22;48433;53.016;-2.260;2023-09-07T06:05:44;22.00;99.90
59309;DHT22;48433;53.016;-2.260;2023-09-07T06:08:12;22.00;99.90
59309;DHT22;48433;53.016;-2.260;2023-09-07T06:10:40;22.00;99.90
59309;DHT22;48433;53.016;-2.260;2023-09-07T06:13:08;22.00;99.90
59309;DHT22;48433;53.016;-2.260;2023-09-07T06:15:36;22.10;99.90
59309;DHT22;48433;53.016;-2.260;2023-09-07T06:18:04;22.10;99.90
59309;DHT22;48433;53.016;-2.260;2023-09-07T06:20:33;22.10;99.90
59309;DHT22;48433;53.016;-2.260;2023-09-07T06:23:03;22.10;99.90
59309;DHT22;48433;53.016;-2.260;2023-09-07T06:25:31;22.10;99.90
59309;DHT22;48433;53.016;-2.260;2023-09-07T06:28:01;22.10;99.90
59309;DHT22;48433;53.016;-2.260;2023-09-07T06:30:29;22.20;99.90
59309;DHT22;48433;53.016;-2.260;2023-09-07T06:32:59;22.20;99.90
59309;DHT22;48433;53.016;-2.260;2023-09-07T06:35:27;22.20;99.90
59309;DHT22;48433;53.016;-2.260;2023-09-07T06:37:55;22.30;99.90
59309;DHT22;48433;53.016;-2.260;2023-09-07T06:40:25;22.30;99.90
59309;DHT22;48433;53.016;-2.260;2023-09-07T06:42:57;22.30;99.90
59309;DHT22;48433;53.016;-2.260;2023-09-07T06:45:26;22.50;99.90
59309;DHT22;48433;53.016;-2.260;2023-09-07T06:50:24;22.70;99.90
59309;DHT22;48433;53.016;-2.260;2023-09-07T06:52:52;22.70;99.90
59309;DHT22;48433;53.016;-2.260;2023-09-07T06:55:21;22.80;99.90
59309;DHT22;48433;53.016;-2.260;2023-09-07T06:57:48;23.00;99.90
59309;DHT22;48433;53.016;-2.260;2023-09-07T07:00:17;23.10;99.90
59309;DHT22;48433;53.016;-2.260;2023-09-07T07:02:45;23.20;99.90
59309;DHT22;48433;53.016;-2.260;2023-09-07T07:05:13;23.30;99.90
59309;DHT22;48433;53.016;-2.260;2023-09-07T07:07:42;23.40;99.90
59309;DHT22;48433;53.016;-2.260;2023-09-07T07:10:10;23.50;99.90
59309;DHT22;48433;53.016;-2.260;2023-09-07T07:12:40;23.70;99.90
59309;DHT22;48433;53.016;-2.260;2023-09-07T07:15:08;23.70;99.90
59309;DHT22;48433;53.016;-2.260;2023-09-07T07:17:36;23.90;99.90
59309;DHT22;48433;53.016;-2.260;2023-09-07T07:20:05;24.00;99.90
59309;DHT22;48433;53.016;-2.260;2023-09-07T07:22:33;24.00;99.90
59309;DHT22;48433;53.016;-2.260;2023-09-07T07:25:03;24.10;99.60
59309;DHT22;48433;53.016;-2.260;2023-09-07T07:27:33;24.10;99.40
59309;DHT22;48433;53.016;-2.260;2023-09-07T07:30:02;24.10;99.30
59309;DHT22;48433;53.016;-2.260;2023-09-07T07:32:30;24.20;99.40
59309;DHT22;48433;53.016;-2.260;2023-09-07T07:34:58;24.30;98.60
59309;DHT22;48433;53.016;-2.260;2023-09-07T07:37:26;24.20;98.50
59309;DHT22;48433;53.016;-2.260;2023-09-07T07:39:54;24.30;98.40
59309;DHT22;48433;53.016;-2.260;2023-09-07T07:42:22;24.30;98.50
59309;DHT22;48433;53.016;-2.260;2023-09-07T07:47:18;24.60;98.10
59309;DHT22;48433;53.016;-2.260;2023-09-07T07:49:45;24.80;97.90
59309;DHT22;48433;53.016;-2.260;2023-09-07T07:52:13;24.90;97.40
59309;DHT22;48433;53.016;-2.260;2023-09-07T07:54:41;24.90;97.60
59309;DHT22;48433;53.016;-2.260;2023-09-07T07:57:10;24.90;97.40
59309;DHT22;48433;53.016;-2.260;2023-09-07T07:59:39;25.00;96.80
59309;DHT22;48433;53.016;-2.260;2023-09-07T08:02:07;25.00;96.70
59309;DHT22;48433;53.016;-2.260;2023-09-07T08:04:35;25.10;96.50
59309;DHT22;48433;53.016;-2.260;2023-09-07T08:07:04;25.20;96.50
59309;DHT22;48433;53.016;-2.260;2023-09-07T08:09:34;25.30;96.60
59309;DHT22;48433;53.016;-2.260;2023-09-07T08:12:01;25.30;96.80
59309;DHT22;48433;53.016;-2.260;2023-09-07T08:14:32;25.60;96.20
59309;DHT22;48433;53.016;-2.260;2023-09-07T08:17:02;25.80;96.10
59309;DHT22;48433;53.016;-2.260;2023-09-07T08:22:00;25.90;95.80
59309;DHT22;48433;53.016;-2.260;2023-09-07T08:24:32;26.10;95.50
59309;DHT22;48433;53.016;-2.260;2023-09-07T08:27:02;26.20;95.30
59309;DHT22;48433;53.016;-2.260;2023-09-07T08:29:30;26.40;95.20
59309;DHT22;48433;53.016;-2.260;2023-09-07T08:32:00;26.60;95.00
59309;DHT22;48433;53.016;-2.260;2023-09-07T08:34:31;26.90;94.60
59309;DHT22;48433;53.016;-2.260;2023-09-07T08:36:59;27.10;94.30
59309;DHT22;48433;53.016;-2.260;2023-09-07T08:39:27;27.30;94.10
59309;DHT22;48433;53.016;-2.260;2023-09-07T08:41:56;27.50;93.80
59309;DHT22;48433;53.016;-2.260;2023-09-07T08:44:29;27.50;93.50
59309;DHT22;48433;53.016;-2.260;2023-09-07T08:49:26;27.80;93.00
59309;DHT22;48433;53.016;-2.260;2023-09-07T08:51:57;28.10;92.90
59309;DHT22;48433;53.016;-2.260;2023-09-07T08:54:26;28.10;92.60
59309;DHT22;48433;53.016;-2.260;2023-09-07T08:56:54;28.10;92.60
59309;DHT22;48433;53.016;-2.260;2023-09-07T08:59:24;27.90;92.10
59309;DHT22;48433;53.016;-2.260;2023-09-07T09:01:56;27.90;92.30
59309;DHT22;48433;53.016;-2.260;2023-09-07T09:04:27;27.50;92.40
59309;DHT22;48433;53.016;-2.260;2023-09-07T09:06:56;27.50;92.70
59309;DHT22;48433;53.016;-2.260;2023-09-07T09:09:25;27.60;92.60
59309;DHT22;48433;53.016;-2.260;2023-09-07T09:11:52;27.60;92.80
59309;DHT22;48433;53.016;-2.260;2023-09-07T09:14:20;28.00;92.00
59309;DHT22;48433;53.016;-2.260;2023-09-07T09:16:52;28.40;91.70
59309;DHT22;48433;53.016;-2.260;2023-09-07T09:19:33;28.70;91.10
59309;DHT22;48433;53.016;-2.260;2023-09-07T09:22:02;29.00;91.00
59309;DHT22;48433;53.016;-2.260;2023-09-07T09:24:34;29.40;90.40
59309;DHT22;48433;53.016;-2.260;2023-09-07T09:27:05;29.40;90.60
59309;DHT22;48433;53.016;-2.260;2023-09-07T09:29:33;29.80;90.00
59309;DHT22;48433;53.016;-2.260;2023-09-07T09:32:04;30.60;88.70
59309;DHT22;48433;53.016;-2.260;2023-09-07T09:34:33;31.20;88.00
59309;DHT22;48433;53.016;-2.260;2023-09-07T09:37:02;31.80;86.90
59309;DHT22;48433;53.016;-2.260;2023-09-07T09:39:34;32.00;85.80
59309;DHT22;48433;53.016;-2.260;2023-09-07T09:42:02;32.90;83.40
59309;DHT22;48433;53.016;-2.260;2023-09-07T09:44:30;32.90;83.80
59309;DHT22;48433;53.016;-2.260;2023-09-07T09:46:59;33.40;82.50
59309;DHT22;48433;53.016;-2.260;2023-09-07T09:49:27;33.90;79.50
59309;DHT22;48433;53.016;-2.260;2023-09-07T09:51:56;33.90;80.00
59309;DHT22;48433;53.016;-2.260;2023-09-07T09:54:26;34.20;79.00
59309;DHT22;48433;53.016;-2.260;2023-09-07T09:56:55;34.20;78.90
59309;DHT22;48433;53.016;-2.260;2023-09-07T09:59:22;35.20;77.10
59309;DHT22;48433;53.016;-2.260;2023-09-07T10:01:52;35.10;77.10
59309;DHT22;48433;53.016;-2.260;2023-09-07T10:04:21;36.30;73.10
59309;DHT22;48433;53.016;-2.260;2023-09-07T10:06:55;36.30;73.80
59309;DHT22;48433;53.016;-2.260;2023-09-07T10:09:23;36.50;71.20
59309;DHT22;48433;53.016;-2.260;2023-09-07T10:11:54;36.50;71.10
59309;DHT22;48433;53.016;-2.260;2023-09-07T10:14:21;36.00;70.80
59309;DHT22;48433;53.016;-2.260;2023-09-07T10:16:51;34.90;71.90
59309;DHT22;48433;53.016;-2.260;2023-09-07T10:19:25;34.60;71.80
59309;DHT22;48433;53.016;-2.260;2023-09-07T10:21:54;33.80;73.90
59309;DHT22;48433;53.016;-2.260;2023-09-07T10:24:30;33.80;74.40
59309;DHT22;48433;53.016;-2.260;2023-09-07T10:29:43;34.10;74.00
59309;DHT22;48433;53.016;-2.260;2023-09-07T10:35:15;35.60;71.80
59309;DHT22;48433;53.016;-2.260;2023-09-07T10:37:47;37.20;68.10
59309;DHT22;48433;53.016;-2.260;2023-09-07T10:40:23;37.20;68.30
59309;DHT22;48433;53.016;-2.260;2023-09-07T10:43:01;37.70;65.40
59309;DHT22;48433;53.016;-2.260;2023-09-07T10:45:29;38.00;65.20
59309;DHT22;48433;53.016;-2.260;2023-09-07T10:47:57;37.20;64.30
59309;DHT22;48433;53.016;-2.260;2023-09-07T10:50:25;37.10;64.60
59309;DHT22;48433;53.016;-2.260;2023-09-07T10:52:53;36.10;65.90
59309;DHT22;48433;53.016;-2.260;2023-09-07T10:55:21;35.30;67.20
59309;DHT22;48433;53.016;-2.260;2023-09-07T10:57:49;35.50;68.90
59309;DHT22;48433;53.016;-2.260;2023-09-07T11:00:17;35.50;68.60
59309;DHT22;48433;53.016;-2.260;2023-09-07T11:02:44;35.90;68.40
59309;DHT22;48433;53.016;-2.260;2023-09-07T11:10:11;37.70;63.60
59309;DHT22;48433;53.016;-2.260;2023-09-07T11:12:40;38.30;63.30
59309;DHT22;48433;53.016;-2.260;2023-09-07T11:15:11;39.00;61.80
59309;DHT22;48433;53.016;-2.260;2023-09-07T11:17:39;39.80;59.90
59309;DHT22;48433;53.016;-2.260;2023-09-07T11:20:07;40.30;58.00
59309;DHT22;48433;53.016;-2.260;2023-09-07T11:22:36;40.80;57.30
59309;DHT22;48433;53.016;-2.260;2023-09-07T11:25:21;40.90;56.40
59309;DHT22;48433;53.016;-2.260;2023-09-07T11:27:50;41.20;54.80
59309;DHT22;48433;53.016;-2.260;2023-09-07T11:30:20;41.30;55.10
59309;DHT22;48433;53.016;-2.260;2023-09-07T11:32:47;41.50;53.20
59309;DHT22;48433;53.016;-2.260;2023-09-07T11:35:15;41.40;52.60
59309;DHT22;48433;53.016;-2.260;2023-09-07T11:37:51;41.00;52.20
59309;DHT22;48433;53.016;-2.260;2023-09-07T11:40:20;40.90;51.80
59309;DHT22;48433;53.016;-2.260;2023-09-07T11:42:47;40.70;52.50
59309;DHT22;48433;53.016;-2.260;2023-09-07T11:45:16;40.80;51.60
59309;DHT22;48433;53.016;-2.260;2023-09-07T11:47:46;41.20;51.00
59309;DHT22;48433;53.016;-2.260;2023-09-07T11:50:17;41.30;51.30
59309;DHT22;48433;53.016;-2.260;2023-09-07T11:52:45;41.70;50.40
59309;DHT22;48433;53.016;-2.260;2023-09-07T11:55:14;42.10;49.30
59309;DHT22;48433;53.016;-2.260;2023-09-07T11:57:42;42.70;47.50
59309;DHT22;48433;53.016;-2.260;2023-09-07T12:00:10;42.70;48.00
59309;DHT22;48433;53.016;-2.260;2023-09-07T12:02:41;42.90;47.70
59309;DHT22;48433;53.016;-2.260;2023-09-07T12:05:09;43.10;46.80
59309;DHT22;48433;53.016;-2.260;2023-09-07T12:07:46;43.40;45.80
59309;DHT22;48433;53.016;-2.260;2023-09-07T12:10:13;43.30;46.10
59309;DHT22;48433;53.016;-2.260;2023-09-07T12:12:41;43.60;45.80
59309;DHT22;48433;53.016;-2.260;2023-09-07T12:15:10;44.10;44.90
59309;DHT22;48433;53.016;-2.260;2023-09-07T12:20:09;44.60;43.20
59309;DHT22;48433;53.016;-2.260;2023-09-07T12:22:38;44.40;43.40
59309;DHT22;48433;53.016;-2.260;2023-09-07T12:25:07;44.20;43.50
59309;DHT22;48433;53.016;-2.260;2023-09-07T12:27:44;44.10;42.80
59309;DHT22;48433;53.016;-2.260;2023-09-07T12:30:20;44.00;43.20
59309;DHT22;48433;53.016;-2.260;2023-09-07T12:32:51;43.90;43.00
59309;DHT22;48433;53.016;-2.260;2023-09-07T12:35:19;43.80;42.70
59309;DHT22;48433;53.016;-2.260;2023-09-07T12:37:48;43.90;42.70
59309;DHT22;48433;53.016;-2.260;2023-09-07T12:40:15;43.90;43.10
59309;DHT22;48433;53.016;-2.260;2023-09-07T12:42:45;44.20;41.90
59309;DHT22;48433;53.016;-2.260;2023-09-07T12:45:13;44.20;42.80
59309;DHT22;48433;53.016;-2.260;2023-09-07T12:47:42;44.50;41.40
59309;DHT22;48433;53.016;-2.260;2023-09-07T12:50:11;44.50;41.90
59309;DHT22;48433;53.016;-2.260;2023-09-07T12:52:38;44.60;41.50
59309;DHT22;48433;53.016;-2.260;2023-09-07T12:55:07;44.10;41.40
59309;DHT22;48433;53.016;-2.260;2023-09-07T12:57:35;43.70;41.60
59309;DHT22;48433;53.016;-2.260;2023-09-07T13:00:06;43.50;41.10
59309;DHT22;48433;53.016;-2.260;2023-09-07T13:02:34;43.80;41.50
59309;DHT22;48433;53.016;-2.260;2023-09-07T13:05:02;43.60;40.60
59309;DHT22;48433;53.016;-2.260;2023-09-07T13:07:33;43.40;40.60
59309;DHT22;48433;53.016;-2.260;2023-09-07T13:10:02;43.30;40.70
59309;DHT22;48433;53.016;-2.260;2023-09-07T13:12:32;42.80;41.10
59309;DHT22;48433;53.016;-2.260;2023-09-07T13:15:00;42.20;41.50
59309;DHT22;48433;53.016;-2.260;2023-09-07T13:17:28;41.80;42.00
59309;DHT22;48433;53.016;-2.260;2023-09-07T13:19:55;41.20;42.40
59309;DHT22;48433;53.016;-2.260;2023-09-07T13:22:23;40.50;43.00
59309;DHT22;48433;53.016;-2.260;2023-09-07T13:24:51;39.60;44.10
59309;DHT22;48433;53.016;-2.260;2023-09-07T13:27:19;38.90;45.20
59309;DHT22;48433;53.016;-2.260;2023-09-07T13:29:46;38.60;46.10
59309;DHT22;48433;53.016;-2.260;2023-09-07T13:34:55;37.00;48.10
59309;DHT22;48433;53.016;-2.260;2023-09-07T13:37:22;36.40;49.00
59309;DHT22;48433;53.016;-2.260;2023-09-07T13:39:50;35.90;49.90
59309;DHT22;48433;53.016;-2.260;2023-09-07T13:42:18;35.50;51.10
59309;DHT22;48433;53.016;-2.260;2023-09-07T13:44:46;35.20;51.70
59309;DHT22;48433;53.016;-2.260;2023-09-07T13:47:14;35.00;52.10
59309;DHT22;48433;53.016;-2.260;2023-09-07T13:49:42;34.80;52.20
59309;DHT22;48433;53.016;-2.260;2023-09-07T13:52:10;34.60;52.60
59309;DHT22;48433;53.016;-2.260;2023-09-07T13:54:37;34.50;52.60
59309;DHT22;48433;53.016;-2.260;2023-09-07T13:57:05;34.30;53.30
59309;DHT22;48433;53.016;-2.260;2023-09-07T13:59:34;34.10;53.60
59309;DHT22;48433;53.016;-2.260;2023-09-07T14:02:02;33.90;53.70
59309;DHT22;48433;53.016;-2.260;2023-09-07T14:04:30;33.70;53.90
59309;DHT22;48433;53.016;-2.260;2023-09-07T14:06:58;33.50;54.10
59309;DHT22;48433;53.016;-2.260;2023-09-07T14:09:26;33.50;54.20
59309;DHT22;48433;53.016;-2.260;2023-09-07T14:11:54;33.40;54.30
59309;DHT22;48433;53.016;-2.260;2023-09-07T14:14:21;33.40;54.30
59309;DHT22;48433;53.016;-2.260;2023-09-07T14:16:49;33.30;54.50
59309;DHT22;48433;53.016;-2.260;2023-09-07T14:19:18;33.20;54.80
59309;DHT22;48433;53.016;-2.260;2023-09-07T14:21:45;33.20;55.10
59309;DHT22;48433;53.016;-2.260;2023-09-07T14:24:13;33.20;55.70
59309;DHT22;48433;53.016;-2.260;2023-09-07T14:26:41;32.90;55.70
59309;DHT22;48433;53.016;-2.260;2023-09-07T14:29:08;32.80;55.70
59309;DHT22;48433;53.016;-2.260;2023-09-07T14:31:36;32.40;56.20
59309;DHT22;48433;53.016;-2.260;2023-09-07T14:34:04;32.40;56.40
59309;DHT22;48433;53.016;-2.260;2023-09-07T14:46:26;32.40;57.30
59309;DHT22;48433;53.016;-2.260;2023-09-07T14:48:54;32.40;57.70
59309;DHT22;48433;53.016;-2.260;2023-09-07T15:06:11;32.00;59.40
59309;DHT22;48433;53.016;-2.260;2023-09-07T15:08:40;31.80;59.70
59309;DHT22;48433;53.016;-2.260;2023-09-07T15:11:08;31.80;59.80
59309;DHT22;48433;53.016;-2.260;2023-09-07T15:13:36;31.80;59.70
59309;DHT22;48433;53.016;-2.260;2023-09-07T15:21:01;32.00;59.10
59309;DHT22;48433;53.016;-2.260;2023-09-07T15:23:29;32.00;58.90
59309;DHT22;48433;53.016;-2.260;2023-09-07T15:25:57;31.90;58.80
59309;DHT22;48433;53.016;-2.260;2023-09-07T15:28:24;31.90;58.90
59309;DHT22;48433;53.016;-2.260;2023-09-07T15:30:52;31.90;59.40
59309;DHT22;48433;53.016;-2.260;2023-09-07T15:33:21;31.70;58.80
59309;DHT22;48433;53.016;-2.260;2023-09-07T15:35:49;31.60;58.50
59309;DHT22;48433;53.016;-2.260;2023-09-07T15:43:16;31.40;59.10
59309;DHT22;48433;53.016;-2.260;2023-09-07T15:48:12;31.20;59.70
59309;DHT22;48433;53.016;-2.260;2023-09-07T15:50:40;31.20;60.20
59309;DHT22;48433;53.016;-2.260;2023-09-07T15:53:08;31.00;60.50
59309;DHT22;48433;53.016;-2.260;2023-09-07T15:55:36;31.00;60.70
59309;DHT22;48433;53.016;-2.260;2023-09-07T15:58:03;31.10;61.10
59309;DHT22;48433;53.016;-2.260;2023-09-07T16:00:31;31.10;61.20
59309;DHT22;48433;53.016;-2.260;2023-09-07T16:03:00;31.10;61.50
59309;DHT22;48433;53.016;-2.260;2023-09-07T16:05:28;31.10;62.00
59309;DHT22;48433;53.016;-2.260;2023-09-07T16:07:56;31.10;62.00
59309;DHT22;48433;53.016;-2.260;2023-09-07T16:10:24;31.20;62.00
59309;DHT22;48433;53.016;-2.260;2023-09-07T16:12:52;31.30;61.90
59309;DHT22;48433;53.016;-2.260;2023-09-07T16:15:19;31.40;61.70
59309;DHT22;48433;53.016;-2.260;2023-09-07T16:17:47;31.50;61.70
59309;DHT22;48433;53.016;-2.260;2023-09-07T16:22:44;31.50;62.10
59309;DHT22;48433;53.016;-2.260;2023-09-07T16:30:10;31.40;62.30
59309;DHT22;48433;53.016;-2.260;2023-09-07T16:32:37;31.40;62.40
59309;DHT22;48433;53.016;-2.260;2023-09-07T16:35:05;31.40;63.00
59309;DHT22;48433;53.016;-2.260;2023-09-07T16:37:33;31.30;63.00
59309;DHT22;48433;53.016;-2.260;2023-09-07T16:40:01;31.20;62.50
59309;DHT22;48433;53.016;-2.260;2023-09-07T16:42:29;31.10;62.90
59309;DHT22;48433;53.016;-2.260;2023-09-07T16:44:57;31.00;63.30
59309;DHT22;48433;53.016;-2.260;2023-09-07T16:49:53;30.90;63.30
59309;DHT22;48433;53.016;-2.260;2023-09-07T16:52:21;30.90;63.30
59309;DHT22;48433;53.016;-2.260;2023-09-07T17:14:38;30.20;65.10
59309;DHT22;48433;53.016;-2.260;2023-09-07T17:17:06;30.10;65.50
59309;DHT22;48433;53.016;-2.260;2023-09-07T17:19:35;29.90;65.80
59309;DHT22;48433;53.016;-2.260;2023-09-07T17:22:03;29.80;66.20
59309;DHT22;48433;53.016;-2.260;2023-09-07T17:24:31;29.80;66.60
59309;DHT22;48433;53.016;-2.260;2023-09-07T17:26:59;29.70;66.60
59309;DHT22;48433;53.016;-2.260;2023-09-07T17:31:57;29.60;67.30
59309;DHT22;48433;53.016;-2.260;2023-09-07T17:34:25;29.50;67.20
59309;DHT22;48433;53.016;-2.260;2023-09-07T17:39:22;29.40;67.70
59309;DHT22;48433;53.016;-2.260;2023-09-07T17:41:50;29.30;68.10
59309;DHT22;48433;53.016;-2.260;2023-09-07T17:44:17;29.30;68.30
59309;DHT22;48433;53.016;-2.260;2023-09-07T17:46:45;29.20;68.70
59309;DHT22;48433;53.016;-2.260;2023-09-07T17:49:16;29.20;69.20
59309;DHT22;48433;53.016;-2.260;2023-09-07T17:51:44;29.00;69.20
59309;DHT22;48433;53.016;-2.260;2023-09-07T17:54:12;29.00;69.80
59309;DHT22;48433;53.016;-2.260;2023-09-07T17:56:40;29.00;70.50
59309;DHT22;48433;53.016;-2.260;2023-09-07T17:59:08;28.90;70.50
59309;DHT22;48433;53.016;-2.260;2023-09-07T18:04:05;28.80;71.30
59309;DHT22;48433;53.016;-2.260;2023-09-07T18:09:01;28.80;72.30
59309;DHT22;48433;53.016;-2.260;2023-09-07T18:11:29;28.70;72.50
59309;DHT22;48433;53.016;-2.260;2023-09-07T18:24:09;28.40;73.80
59309;DHT22;48433;53.016;-2.260;2023-09-07T18:26:37;28.30;74.20
59309;DHT22;48433;53.016;-2.260;2023-09-07T18:31:33;28.20;75.30